sensor_id;sensor_type;location;lat;lon;timestamp;pressure;altitude;pressure_sealevel;temperature;humidity
25759;BME280;13604;52.496;13.456;2023-12-28T00:01:07;100616.75;;;2.47;100.00
25759;BME280;13604;52.496;13.456;2023-12-28T00:03:32;100630.84;;;2.64;100.00
25759;BME280;13604;52.496;13.456;2023-12-28T00:05:57;100618.97;;;2.54;100.00
25759;BME280;13604;52.496;13.456;2023-12-28T00:08:23;100652.78;;;2.70;100.00
25759;BME280;13604;52.496;13.456;2023-12-28T00:10:48;100635.53;;;2.57;100.00
25759;BME280;13604;52.496;13.456;2023-12-28T00:13:13;100607.56;;;2.50;100.00
25759;BME280;13604;52.496;13.456;2023-12-28T00:15:38;100582.16;;;2.31;100.00
25759;BME280;13604;52.496;13.456;2023-12-28T00:18:04;100610.69;;;2.58;100.00
25759;BME280;13604;52.496;13.456;2023-12-28T00:20:29;100614.72;;;2.54;100.00
25759;BME280;13604;52.496;13.456;2023-12-28T00:22:54;100597.94;;;2.48;100.00
25759;BME280;13604;52.496;13.456;2023-12-28T00:25:20;100591.47;;;2.53;100.00
25759;BME280;13604;52.496;13.456;2023-12-28T00:27:45;100584.09;;;2.46;100.00
25759;BME280;13604;52.496;13.456;2023-12-28T00:30:11;100579.72;;;2.45;100.00
25759;BME280;13604;52.496;13.456;2023-12-28T00:32:36;100594.16;;;2.54;100.00
25759;BME280;13604;52.496;13.456;2023-12-28T00:35:02;100597.66;;;2.55;100.00
25759;BME280;13604;52.496;13.456;2023-12-28T00:37:27;100593.38;;;2.55;100.00
25759;BME280;13604;52.496;13.456;2023-12-28T00:39:54;100581.63;;;2.47;100.00
25759;BME280;13604;52.496;13.456;2023-12-28T00:42:19;100574.16;;;2.50;100.00
25759;BME280;13604;52.496;13.456;2023-12-28T00:44:44;100571.78;;;2.42;100.00
25759;BME280;13604;52.496;13.456;2023-12-28T00:47:10;100582.41;;;2.46;100.00
25759;BME280;13604;52.496;13.456;2023-12-28T00:49:36;100586.78;;;2.47;100.00
25759;BME280;13604;52.496;13.456;2023-12-28T00:52:01;100560.13;;;2.23;100.00
25759;BME280;13604;52.496;13.456;2023-12-28T00:54:26;100578.06;;;2.45;100.00
25759;BME280;13604;52.496;13.456;2023-12-28T00:56:52;100589.00;;;2.54;100.00
25759;BME280;13604;52.496;13.456;2023-12-28T00:59:17;100552.66;;;2.38;100.00
25759;BME280;13604;52.496;13.456;2023-12-28T01:01:42;100582.53;;;2.60;100.00
25759;BME280;13604;52.496;13.456;2023-12-28T01:04:08;100562.97;;;2.50;100.00
25759;BME280;13604;52.496;13.456;2023-12-28T01:06:33;100563.75;;;2.49;100.00
25759;BME280;13604;52.496;13.456;2023-12-28T01:08:58;100596.44;;;2.73;100.00
25759;BME280;13604;52.496;13.456;2023-12-28T01:11:24;100591.16;;;2.72;100.00
25759;BME280;13604;52.496;13.456;2023-12-28T01:13:50;100601.81;;;2.76;100.00
25759;BME280;13604;52.496;13.456;2023-12-28T01:16:16;100583.47;;;2.72;100.00
25759;BME280;13604;52.496;13.456;2023-12-28T01:18:41;100565.22;;;2.57;100.00
25759;BME280;13604;52.496;13.456;2023-12-28T01:21:06;100594.84;;;2.75;100.00
25759;BME280;13604;52.496;13.456;2023-12-28T01:23:32;100572.59;;;2.64;100.00
25759;BME280;13604;52.496;13.456;2023-12-28T01:25:57;100587.03;;;2.74;100.00
25759;BME280;13604;52.496;13.456;2023-12-28T01:28:23;100593.16;;;2.76;100.00
25759;BME280;13604;52.496;13.456;2023-12-28T01:30:48;100580.88;;;2.72;100.00
25759;BME280;13604;52.496;13.456;2023-12-28T01:33:13;100587.78;;;2.61;100.00
25759;BME280;13604;52.496;13.456;2023-12-28T01:35:39;100565.00;;;2.54;100.00
25759;BME280;13604;52.496;13.456;2023-12-28T01:38:04;100593.50;;;2.69;100.00
25759;BME280;13604;52.496;13.456;2023-12-28T01:40:29;100592.28;;;2.75;100.00
25759;BME280;13604;52.496;13.456;2023-12-28T01:42:55;100593.97;;;2.75;100.00
25759;BME280;13604;52.496;13.456;2023-12-28T01:45:20;100582.00;;;2.64;100.00
25759;BME280;13604;52.496;13.456;2023-12-28T01:47:45;100553.59;;;2.50;100.00
25759;BME280;13604;52.496;13.456;2023-12-28T01:50:12;100554.81;;;2.44;100.00
25759;BME280;13604;52.496;13.456;2023-12-28T01:52:37;100556.28;;;2.52;100.00
25759;BME280;13604;52.496;13.456;2023-12-28T01:55:03;100510.31;;;2.33;100.00
25759;BME280;13604;52.496;13.456;2023-12-28T01:57:29;100515.69;;;2.48;100.00
25759;BME280;13604;52.496;13.456;2023-12-28T01:59:55;100535.25;;;2.57;100.00
25759;BME280;13604;52.496;13.456;2023-12-28T02:02:22;100515.81;;;2.61;100.00
25759;BME280;13604;52.496;13.456;2023-12-28T02:04:47;100535.81;;;2.65;100.00
25759;BME280;13604;52.496;13.456;2023-12-28T02:07:14;100511.69;;;2.63;100.00
25759;BME280;13604;52.496;13.456;2023-12-28T02:09:39;100500.59;;;2.52;100.00
25759;BME280;13604;52.496;13.456;2023-12-28T02:12:05;100498.72;;;2.62;100.00
25759;BME280;13604;52.496;13.456;2023-12-28T02:14:30;100504.50;;;2.59;100.00
25759;BME280;13604;52.496;13.456;2023-12-28T02:18:10;100542.41;;;2.73;100.00
25759;BME280;13604;52.496;13.456;2023-12-28T02:20:15;100543.66;;;2.67;100.00
25759;BME280;13604;52.496;13.456;2023-12-28T02:22:40;100564.44;;;2.82;100.00
25759;BME280;13604;52.496;13.456;2023-12-28T02:25:09;100560.88;;;2.91;100.00
25759;BME280;13604;52.496;13.456;2023-12-28T02:27:42;100543.97;;;2.95;100.00
25759;BME280;13604;52.496;13.456;2023-12-28T02:30:09;100548.19;;;3.18;100.00
25759;BME280;13604;52.496;13.456;2023-12-28T02:32:44;100540.19;;;3.50;100.00
25759;BME280;13604;52.496;13.456;2023-12-28T02:35:19;100546.88;;;3.85;100.00
25759;BME280;13604;52.496;13.456;2023-12-28T02:37:50;100553.19;;;4.02;100.00
25759;BME280;13604;52.496;13.456;2023-12-28T02:40:17;100531.41;;;4.11;100.00
25759;BME280;13604;52.496;13.456;2023-12-28T02:42:42;100549.66;;;4.52;100.00
25759;BME280;13604;52.496;13.456;2023-12-28T02:45:08;100533.38;;;4.80;97.67
25759;BME280;13604;52.496;13.456;2023-12-28T02:47:34;100516.13;;;4.79;96.79
25759;BME280;13604;52.496;13.456;2023-12-28T02:49:59;100517.31;;;4.97;94.32
25759;BME280;13604;52.496;13.456;2023-12-28T02:52:24;100504.19;;;5.08;92.75
25759;BME280;13604;52.496;13.456;2023-12-28T02:54:50;100531.19;;;5.26;90.75
25759;BME280;13604;52.496;13.456;2023-12-28T02:57:15;100553.97;;;5.47;88.88
25759;BME280;13604;52.496;13.456;2023-12-28T02:59:44;100511.13;;;5.50;86.44
25759;BME280;13604;52.496;13.456;2023-12-28T03:02:10;100534.28;;;5.77;84.46
25759;BME280;13604;52.496;13.456;2023-12-28T03:04:35;100524.56;;;6.01;81.08
25759;BME280;13604;52.496;13.456;2023-12-28T03:07:00;100523.16;;;6.06;79.98
25759;BME280;13604;52.496;13.456;2023-12-28T03:09:26;100525.13;;;6.11;78.47
25759;BME280;13604;52.496;13.456;2023-12-28T03:11:51;100546.91;;;6.29;79.18
25759;BME280;13604;52.496;13.456;2023-12-28T03:14:17;100543.53;;;6.30;78.10
25759;BME280;13604;52.496;13.456;2023-12-28T03:16:42;100541.28;;;6.36;77.14
25759;BME280;13604;52.496;13.456;2023-12-28T03:19:08;100516.66;;;6.28;76.37
25759;BME280;13604;52.496;13.456;2023-12-28T03:21:38;100544.59;;;6.49;75.87
25759;BME280;13604;52.496;13.456;2023-12-28T03:24:04;100525.75;;;6.51;74.93
25759;BME280;13604;52.496;13.456;2023-12-28T03:26:29;100504.72;;;6.45;74.23
25759;BME280;13604;52.496;13.456;2023-12-28T03:28:54;100510.09;;;6.48;74.68
25759;BME280;13604;52.496;13.456;2023-12-28T03:31:20;100541.13;;;6.63;72.72
25759;BME280;13604;52.496;13.456;2023-12-28T03:33:45;100527.91;;;6.73;72.63
25759;BME280;13604;52.496;13.456;2023-12-28T03:36:18;100517.06;;;6.80;71.06
25759;BME280;13604;52.496;13.456;2023-12-28T03:38:44;100526.34;;;6.92;71.74
25759;BME280;13604;52.496;13.456;2023-12-28T03:41:19;100545.88;;;7.02;71.89
25759;BME280;13604;52.496;13.456;2023-12-28T03:43:45;100537.75;;;6.95;70.36
25759;BME280;13604;52.496;13.456;2023-12-28T03:46:11;100534.72;;;7.03;70.20
25759;BME280;13604;52.496;13.456;2023-12-28T03:48:36;100530.56;;;6.90;74.50
25759;BME280;13604;52.496;13.456;2023-12-28T03:51:02;100516.94;;;6.48;79.10
25759;BME280;13604;52.496;13.456;2023-12-28T03:53:27;100529.84;;;6.18;84.31
25759;BME280;13604;52.496;13.456;2023-12-28T03:55:53;100528.59;;;5.83;86.98
25759;BME280;13604;52.496;13.456;2023-12-28T03:58:18;100552.16;;;5.87;90.09
25759;BME280;13604;52.496;13.456;2023-12-28T04:00:43;100544.66;;;5.64;92.44
25759;BME280;13604;52.496;13.456;2023-12-28T04:03:09;100552.59;;;5.67;92.17
25759;BME280;13604;52.496;13.456;2023-12-28T04:05:34;100526.91;;;5.55;91.25
25759;BME280;13604;52.496;13.456;2023-12-28T04:07:59;100550.75;;;5.64;92.63
25759;BME280;13604;52.496;13.456;2023-12-28T04:10:31;100522.38;;;5.51;90.58
25759;BME280;13604;52.496;13.456;2023-12-28T04:12:57;100550.31;;;5.71;90.22
25759;BME280;13604;52.496;13.456;2023-12-28T04:15:23;100528.81;;;5.58;90.72
25759;BME280;13604;52.496;13.456;2023-12-28T04:17:49;100554.69;;;5.72;91.53
25759;BME280;13604;52.496;13.456;2023-12-28T04:20:14;100550.41;;;5.73;89.41
25759;BME280;13604;52.496;13.456;2023-12-28T04:22:40;100558.75;;;5.82;88.77
25759;BME280;13604;52.496;13.456;2023-12-28T04:25:06;100563.84;;;5.96;87.65
25759;BME280;13604;52.496;13.456;2023-12-28T04:27:31;100543.16;;;5.96;86.40
25759;BME280;13604;52.496;13.456;2023-12-28T04:29:56;100556.59;;;6.18;84.51
25759;BME280;13604;52.496;13.456;2023-12-28T04:32:22;100543.44;;;6.29;83.29
25759;BME280;13604;52.496;13.456;2023-12-28T04:34:49;100559.66;;;6.56;82.10
25759;BME280;13604;52.496;13.456;2023-12-28T04:37:14;100563.34;;;6.74;80.71
25759;BME280;13604;52.496;13.456;2023-12-28T04:39:39;100540.75;;;6.72;80.42
25759;BME280;13604;52.496;13.456;2023-12-28T04:42:04;100558.47;;;6.95;78.26
25759;BME280;13604;52.496;13.456;2023-12-28T04:44:30;100542.97;;;6.80;78.21
25759;BME280;13604;52.496;13.456;2023-12-28T04:46:55;100537.44;;;6.89;77.60
25759;BME280;13604;52.496;13.456;2023-12-28T04:49:20;100539.28;;;6.92;76.67
25759;BME280;13604;52.496;13.456;2023-12-28T04:51:46;100559.97;;;7.07;75.94
25759;BME280;13604;52.496;13.456;2023-12-28T04:54:11;100551.16;;;7.03;76.39
25759;BME280;13604;52.496;13.456;2023-12-28T04:56:36;100548.56;;;7.03;75.04
25759;BME280;13604;52.496;13.456;2023-12-28T04:59:02;100546.53;;;6.97;75.43
25759;BME280;13604;52.496;13.456;2023-12-28T05:01:27;100572.47;;;7.14;75.59
25759;BME280;13604;52.496;13.456;2023-12-28T05:03:56;100577.28;;;7.23;74.45
25759;BME280;13604;52.496;13.456;2023-12-28T05:06:21;100583.06;;;7.18;74.81
25759;BME280;13604;52.496;13.456;2023-12-28T05:08:47;100552.19;;;7.07;73.49
25759;BME280;13604;52.496;13.456;2023-12-28T05:11:12;100582.09;;;7.16;74.22
25759;BME280;13604;52.496;13.456;2023-12-28T05:13:38;100561.84;;;7.09;73.01
25759;BME280;13604;52.496;13.456;2023-12-28T05:16:03;100581.75;;;7.10;75.01
25759;BME280;13604;52.496;13.456;2023-12-28T05:18:29;100600.56;;;7.23;74.27
25759;BME280;13604;52.496;13.456;2023-12-28T05:20:54;100609.31;;;7.25;74.06
25759;BME280;13604;52.496;13.456;2023-12-28T05:23:19;100582.94;;;7.15;73.63
25759;BME280;13604;52.496;13.456;2023-12-28T05:25:45;100588.34;;;7.20;74.81
25759;BME280;13604;52.496;13.456;2023-12-28T05:28:11;100587.38;;;7.18;74.55
25759;BME280;13604;52.496;13.456;2023-12-28T05:30:36;100582.31;;;7.05;74.23
25759;BME280;13604;52.496;13.456;2023-12-28T05:33:02;100586.13;;;7.11;74.64
25759;BME280;13604;52.496;13.456;2023-12-28T05:35:27;100591.97;;;7.07;74.19
25759;BME280;13604;52.496;13.456;2023-12-28T05:37:52;100599.88;;;7.10;75.08
25759;BME280;13604;52.496;13.456;2023-12-28T05:40:17;100593.03;;;6.96;75.23
25759;BME280;13604;52.496;13.456;2023-12-28T05:42:43;100606.41;;;7.04;75.31
25759;BME280;13604;52.496;13.456;2023-12-28T05:45:08;100606.31;;;6.87;76.88
25759;BME280;13604;52.496;13.456;2023-12-28T05:47:34;100637.47;;;7.04;76.94
25759;BME280;13604;52.496;13.456;2023-12-28T05:50:00;100619.63;;;6.93;77.07
25759;BME280;13604;52.496;13.456;2023-12-28T05:52:25;100640.63;;;6.98;77.96
25759;BME280;13604;52.496;13.456;2023-12-28T05:54:50;100645.53;;;6.93;78.81
25759;BME280;13604;52.496;13.456;2023-12-28T05:57:15;100620.19;;;6.73;79.20
25759;BME280;13604;52.496;13.456;2023-12-28T05:59:41;100634.47;;;6.81;79.94
25759;BME280;13604;52.496;13.456;2023-12-28T06:02:06;100635.06;;;6.77;80.05
25759;BME280;13604;52.496;13.456;2023-12-28T06:04:32;100646.69;;;6.84;80.77
25759;BME280;13604;52.496;13.456;2023-12-28T06:06:58;100654.81;;;6.90;81.88
25759;BME280;13604;52.496;13.456;2023-12-28T06:09:23;100667.06;;;7.07;82.78
25759;BME280;13604;52.496;13.456;2023-12-28T06:11:48;100648.84;;;7.06;83.09
25759;BME280;13604;52.496;13.456;2023-12-28T06:14:14;100645.97;;;7.16;83.54
25759;BME280;13604;52.496;13.456;2023-12-28T06:16:39;100631.41;;;7.18;83.95
25759;BME280;13604;52.496;13.456;2023-12-28T06:19:04;100654.50;;;7.30;84.26
25759;BME280;13604;52.496;13.456;2023-12-28T06:21:30;100665.13;;;7.34;84.82
25759;BME280;13604;52.496;13.456;2023-12-28T06:23:56;100666.75;;;7.32;85.99
25759;BME280;13604;52.496;13.456;2023-12-28T06:26:21;100658.25;;;7.20;86.96
25759;BME280;13604;52.496;13.456;2023-12-28T06:28:47;100653.81;;;7.17;87.63
25759;BME280;13604;52.496;13.456;2023-12-28T06:31:12;100662.75;;;7.23;87.75
25759;BME280;13604;52.496;13.456;2023-12-28T06:33:37;100661.22;;;7.26;88.22
25759;BME280;13604;52.496;13.456;2023-12-28T06:36:07;100646.31;;;7.22;88.17
25759;BME280;13604;52.496;13.456;2023-12-28T06:38:32;100666.03;;;7.35;87.79
25759;BME280;13604;52.496;13.456;2023-12-28T06:40:58;100652.91;;;7.32;88.51
25759;BME280;13604;52.496;13.456;2023-12-28T06:43:23;100652.81;;;7.45;87.65
25759;BME280;13604;52.496;13.456;2023-12-28T06:45:48;100626.75;;;7.27;88.16
25759;BME280;13604;52.496;13.456;2023-12-28T06:48:14;100632.72;;;7.26;88.57
25759;BME280;13604;52.496;13.456;2023-12-28T06:50:39;100662.28;;;7.30;89.37
25759;BME280;13604;52.496;13.456;2023-12-28T06:53:04;100650.69;;;7.23;89.98
25759;BME280;13604;52.496;13.456;2023-12-28T06:55:30;100648.00;;;7.22;89.70
25759;BME280;13604;52.496;13.456;2023-12-28T06:57:55;100646.47;;;7.10;91.18
25759;BME280;13604;52.496;13.456;2023-12-28T07:00:21;100661.69;;;7.04;92.24
25759;BME280;13604;52.496;13.456;2023-12-28T07:02:46;100664.38;;;7.06;92.12
25759;BME280;13604;52.496;13.456;2023-12-28T07:05:11;100667.06;;;7.07;91.76
25759;BME280;13604;52.496;13.456;2023-12-28T07:07:38;100678.75;;;7.15;92.53
25759;BME280;13604;52.496;13.456;2023-12-28T07:10:04;100649.63;;;6.90;92.96
25759;BME280;13604;52.496;13.456;2023-12-28T07:12:30;100669.00;;;6.96;93.26
25759;BME280;13604;52.496;13.456;2023-12-28T07:14:55;100681.31;;;7.00;93.62
25759;BME280;13604;52.496;13.456;2023-12-28T07:17:20;100685.69;;;7.02;92.90
25759;BME280;13604;52.496;13.456;2023-12-28T07:19:46;100677.22;;;6.89;92.96
25759;BME280;13604;52.496;13.456;2023-12-28T07:22:11;100686.06;;;6.93;93.50
25759;BME280;13604;52.496;13.456;2023-12-28T07:24:36;100701.59;;;6.93;94.28
25759;BME280;13604;52.496;13.456;2023-12-28T07:27:02;100650.97;;;6.68;94.26
25759;BME280;13604;52.496;13.456;2023-12-28T07:29:27;100693.47;;;6.87;95.38
25759;BME280;13604;52.496;13.456;2023-12-28T07:31:53;100682.13;;;6.85;95.71
25759;BME280;13604;52.496;13.456;2023-12-28T07:34:19;100691.25;;;6.93;95.20
25759;BME280;13604;52.496;13.456;2023-12-28T07:36:44;100682.56;;;6.92;95.08
25759;BME280;13604;52.496;13.456;2023-12-28T07:39:10;100693.56;;;7.03;95.21
25759;BME280;13604;52.496;13.456;2023-12-28T07:41:36;100703.03;;;7.03;96.41
25759;BME280;13604;52.496;13.456;2023-12-28T07:44:01;100698.56;;;7.00;96.69
25759;BME280;13604;52.496;13.456;2023-12-28T07:46:26;100707.56;;;7.07;96.93
25759;BME280;13604;52.496;13.456;2023-12-28T07:48:52;100711.13;;;7.09;96.50
25759;BME280;13604;52.496;13.456;2023-12-28T07:51:17;100685.78;;;7.03;96.41
25759;BME280;13604;52.496;13.456;2023-12-28T07:53:42;100697.13;;;7.05;97.14
25759;BME280;13604;52.496;13.456;2023-12-28T07:56:08;100720.34;;;7.18;96.84
25759;BME280;13604;52.496;13.456;2023-12-28T07:58:33;100722.41;;;7.24;96.80
25759;BME280;13604;52.496;13.456;2023-12-28T08:00:58;100738.66;;;7.36;96.59
25759;BME280;13604;52.496;13.456;2023-12-28T08:03:23;100728.19;;;7.35;96.53
25759;BME280;13604;52.496;13.456;2023-12-28T08:05:49;100720.88;;;7.28;96.45
25759;BME280;13604;52.496;13.456;2023-12-28T08:08:14;100774.22;;;7.39;97.10
25759;BME280;13604;52.496;13.456;2023-12-28T08:10:39;100732.75;;;7.39;96.51
25759;BME280;13604;52.496;13.456;2023-12-28T08:13:05;100754.53;;;7.58;96.08
25759;BME280;13604;52.496;13.456;2023-12-28T08:15:30;100733.03;;;7.44;96.38
25759;BME280;13604;52.496;13.456;2023-12-28T08:17:55;100737.66;;;7.49;96.18
25759;BME280;13604;52.496;13.456;2023-12-28T08:20:21;100756.53;;;7.62;96.08
25759;BME280;13604;52.496;13.456;2023-12-28T08:22:46;100747.91;;;7.63;95.26
25759;BME280;13604;52.496;13.456;2023-12-28T08:25:11;100777.06;;;7.73;94.82
25759;BME280;13604;52.496;13.456;2023-12-28T08:27:36;100755.16;;;7.68;94.54
25759;BME280;13604;52.496;13.456;2023-12-28T08:30:02;100773.81;;;7.78;94.61
25759;BME280;13604;52.496;13.456;2023-12-28T08:32:28;100759.72;;;7.72;94.58
25759;BME280;13604;52.496;13.456;2023-12-28T08:34:53;100728.81;;;7.61;94.02
25759;BME280;13604;52.496;13.456;2023-12-28T08:37:18;100717.19;;;7.54;94.06
25759;BME280;13604;52.496;13.456;2023-12-28T08:39:44;100739.78;;;7.71;93.67
25759;BME280;13604;52.496;13.456;2023-12-28T08:42:09;100755.06;;;7.82;93.26
25759;BME280;13604;52.496;13.456;2023-12-28T08:44:34;100749.44;;;7.74;93.71
25759;BME280;13604;52.496;13.456;2023-12-28T08:47:02;100768.91;;;7.82;93.35
25759;BME280;13604;52.496;13.456;2023-12-28T08:49:27;100774.44;;;7.88;92.93
25759;BME280;13604;52.496;13.456;2023-12-28T08:51:52;100780.41;;;7.87;92.09
25759;BME280;13604;52.496;13.456;2023-12-28T08:54:18;100772.94;;;7.77;92.28
25759;BME280;13604;52.496;13.456;2023-12-28T08:56:43;100746.47;;;7.68;92.11
25759;BME280;13604;52.496;13.456;2023-12-28T08:59:09;100761.94;;;7.81;91.80
25759;BME280;13604;52.496;13.456;2023-12-28T09:01:34;100757.75;;;7.68;91.25
25759;BME280;13604;52.496;13.456;2023-12-28T09:03:59;100785.78;;;7.90;90.67
25759;BME280;13604;52.496;13.456;2023-12-28T09:06:25;100776.84;;;7.85;90.15
25759;BME280;13604;52.496;13.456;2023-12-28T09:08:52;100783.66;;;7.83;90.37
25759;BME280;13604;52.496;13.456;2023-12-28T09:11:18;100794.63;;;7.94;89.69
25759;BME280;13604;52.496;13.456;2023-12-28T09:13:43;100803.31;;;7.95;89.77
25759;BME280;13604;52.496;13.456;2023-12-28T09:16:13;100788.94;;;7.85;89.75
25759;BME280;13604;52.496;13.456;2023-12-28T09:18:39;100801.34;;;7.90;89.33
25759;BME280;13604;52.496;13.456;2023-12-28T09:21:05;100780.16;;;7.83;89.40
25759;BME280;13604;52.496;13.456;2023-12-28T09:23:31;100793.91;;;7.97;89.42
25759;BME280;13604;52.496;13.456;2023-12-28T09:25:58;100789.13;;;7.88;89.42
25759;BME280;13604;52.496;13.456;2023-12-28T09:28:23;100772.66;;;7.72;89.67
25759;BME280;13604;52.496;13.456;2023-12-28T09:30:49;100773.91;;;7.79;89.46
25759;BME280;13604;52.496;13.456;2023-12-28T09:33:14;100771.00;;;7.73;89.90
25759;BME280;13604;52.496;13.456;2023-12-28T09:35:41;100792.16;;;7.81;89.58
25759;BME280;13604;52.496;13.456;2023-12-28T09:38:06;100782.25;;;7.73;89.61
25759;BME280;13604;52.496;13.456;2023-12-28T09:40:31;100794.81;;;7.82;90.10
25759;BME280;13604;52.496;13.456;2023-12-28T09:43:12;100786.16;;;7.82;90.11
25759;BME280;13604;52.496;13.456;2023-12-28T09:45:39;100769.19;;;7.72;90.45
25759;BME280;13604;52.496;13.456;2023-12-28T09:48:05;100770.53;;;7.80;90.19
25759;BME280;13604;52.496;13.456;2023-12-28T09:50:32;100766.22;;;7.81;90.11
25759;BME280;13604;52.496;13.456;2023-12-28T09:52:57;100776.84;;;7.85;90.22
25759;BME280;13604;52.496;13.456;2023-12-28T09:55:22;100771.69;;;7.70;90.11
25759;BME280;13604;52.496;13.456;2023-12-28T09:57:50;100760.94;;;7.79;90.44
25759;BME280;13604;52.496;13.456;2023-12-28T10:00:16;100762.38;;;7.74;90.90
25759;BME280;13604;52.496;13.456;2023-12-28T10:02:44;100777.22;;;7.91;90.13
25759;BME280;13604;52.496;13.456;2023-12-28T10:05:13;100779.91;;;7.93;90.83
25759;BME280;13604;52.496;13.456;2023-12-28T10:07:47;100781.41;;;8.04;90.12
25759;BME280;13604;52.496;13.456;2023-12-28T10:10:12;100775.72;;;8.11;89.64
25759;BME280;13604;52.496;13.456;2023-12-28T10:12:38;100757.34;;;8.23;88.26
25759;BME280;13604;52.496;13.456;2023-12-28T10:15:06;100745.59;;;8.30;87.89
25759;BME280;13604;52.496;13.456;2023-12-28T10:17:33;100770.97;;;8.67;85.95
25759;BME280;13604;52.496;13.456;2023-12-28T10:19:59;100760.78;;;9.21;82.44
25759;BME280;13604;52.496;13.456;2023-12-28T10:22:30;100768.88;;;9.27;81.52
25759;BME280;13604;52.496;13.456;2023-12-28T10:24:55;100766.94;;;9.93;78.94
25759;BME280;13604;52.496;13.456;2023-12-28T10:27:20;100754.81;;;10.12;77.00
25759;BME280;13604;52.496;13.456;2023-12-28T10:29:46;100764.63;;;10.55;74.36
25759;BME280;13604;52.496;13.456;2023-12-28T10:32:11;100747.53;;;11.41;70.85
25759;BME280;13604;52.496;13.456;2023-12-28T10:49:17;97650.31;;;-3.54;nan
25759;BME280;13604;52.496;13.456;2023-12-28T10:51:43;100762.25;;;15.20;nan
25759;BME280;13604;52.496;13.456;2023-12-28T10:54:36;100739.88;;;15.35;nan
25759;BME280;13604;52.496;13.456;2023-12-28T10:57:08;100775.19;;;15.14;nan
25759;BME280;13604;52.496;13.456;2023-12-28T10:59:42;100738.91;;;14.98;nan
25759;BME280;13604;52.496;13.456;2023-12-28T11:02:48;100751.81;;;14.91;53.01
25759;BME280;13604;52.496;13.456;2023-12-28T11:05:17;100716.94;;;15.62;50.63
25759;BME280;13604;52.496;13.456;2023-12-28T11:07:43;100751.31;;;16.10;49.38
25759;BME280;13604;52.496;13.456;2023-12-28T11:12:35;100752.06;;;14.99;nan
25759;BME280;13604;52.496;13.456;2023-12-28T11:15:02;100731.72;;;15.24;nan
25759;BME280;13604;52.496;13.456;2023-12-28T11:17:30;100757.53;;;15.42;nan
25759;BME280;13604;52.496;13.456;2023-12-28T11:24:47;100727.81;;;16.16;nan
25759;BME280;13604;52.496;13.456;2023-12-28T11:27:13;100752.88;;;14.98;nan
25759;BME280;13604;52.496;13.456;2023-12-28T11:29:38;100751.47;;;13.91;nan
25759;BME280;13604;52.496;13.456;2023-12-28T11:32:04;100758.41;;;12.86;nan
25759;BME280;13604;52.496;13.456;2023-12-28T11:34:31;100719.44;;;11.78;nan
25759;BME280;13604;52.496;13.456;2023-12-28T11:37:00;100747.56;;;11.64;nan
25759;BME280;13604;52.496;13.456;2023-12-28T11:39:31;100803.66;;;12.39;nan
25759;BME280;13604;52.496;13.456;2023-12-28T11:42:02;100747.16;;;12.65;nan
25759;BME280;13604;52.496;13.456;2023-12-28T11:44:29;100747.16;;;12.65;nan
25759;BME280;13604;52.496;13.456;2023-12-28T11:46:54;100743.53;;;12.61;nan
25759;BME280;13604;52.496;13.456;2023-12-28T11:49:25;100718.13;;;13.57;nan
25759;BME280;13604;52.496;13.456;2023-12-28T11:51:56;100710.94;;;14.07;nan
25759;BME280;13604;52.496;13.456;2023-12-28T11:54:24;100718.03;;;14.40;nan
25759;BME280;13604;52.496;13.456;2023-12-28T11:56:49;100701.53;;;15.06;nan
25759;BME280;13604;52.496;13.456;2023-12-28T11:59:15;100696.66;;;15.20;nan
25759;BME280;13604;52.496;13.456;2023-12-28T12:02:34;100697.44;;;15.51;50.64
25759;BME280;13604;52.496;13.456;2023-12-28T12:04:59;100672.09;;;15.90;49.27
25759;BME280;13604;52.496;13.456;2023-12-28T12:07:26;100664.16;;;15.88;48.92
25759;BME280;13604;52.496;13.456;2023-12-28T12:09:58;100685.47;;;14.61;52.33
25759;BME280;13604;52.496;13.456;2023-12-28T12:12:24;100675.41;;;14.15;54.35
25759;BME280;13604;52.496;13.456;2023-12-28T12:14:49;100668.75;;;13.96;55.12
25759;BME280;13604;52.496;13.456;2023-12-28T12:17:15;100668.31;;;12.28;59.26
25759;BME280;13604;52.496;13.456;2023-12-28T12:19:41;100681.16;;;12.46;61.08
25759;BME280;13604;52.496;13.456;2023-12-28T12:22:06;100667.06;;;12.65;59.83
25759;BME280;13604;52.496;13.456;2023-12-28T12:24:32;100674.19;;;13.21;58.66
25759;BME280;13604;52.496;13.456;2023-12-28T12:26:58;100672.31;;;13.71;56.89
25759;BME280;13604;52.496;13.456;2023-12-28T12:29:29;100673.78;;;13.34;57.75
25759;BME280;13604;52.496;13.456;2023-12-28T12:31:55;100673.53;;;13.54;56.52
25759;BME280;13604;52.496;13.456;2023-12-28T12:34:21;100681.09;;;14.31;54.83
25759;BME280;13604;52.496;13.456;2023-12-28T12:36:46;100692.47;;;14.62;53.06
25759;BME280;13604;52.496;13.456;2023-12-28T12:39:11;100681.72;;;13.65;55.47
25759;BME280;13604;52.496;13.456;2023-12-28T12:41:37;100691.22;;;14.18;54.22
25759;BME280;13604;52.496;13.456;2023-12-28T12:44:03;100693.13;;;14.86;52.40
25759;BME280;13604;52.496;13.456;2023-12-28T12:46:30;100692.50;;;15.28;50.82
25759;BME280;13604;52.496;13.456;2023-12-28T12:48:56;100688.63;;;14.81;51.34
25759;BME280;13604;52.496;13.456;2023-12-28T12:51:21;100682.47;;;14.79;52.22
25759;BME280;13604;52.496;13.456;2023-12-28T12:53:47;100669.19;;;15.06;51.20
25759;BME280;13604;52.496;13.456;2023-12-28T12:56:12;100687.06;;;14.87;51.73
25759;BME280;13604;52.496;13.456;2023-12-28T12:58:38;100674.25;;;15.00;51.80
25759;BME280;13604;52.496;13.456;2023-12-28T13:01:03;100700.81;;;14.79;51.50
25759;BME280;13604;52.496;13.456;2023-12-28T13:03:29;100668.13;;;14.05;53.69
25759;BME280;13604;52.496;13.456;2023-12-28T13:05:55;100668.31;;;15.05;50.94